Hr Heinz im Turnier von 01.01.2019 bis 01.02.2019

Hr Heinzs Ergebnis

Rang 335.
Turnierpunkte 963
Gespielt : Gewonnen 100 : 59
Schneider 8
Bilanz 585:488

Hr Heinzs Bummerln

Zeit Gegner Ergebnis Ende
08:11:22 am 08.01.2019 Burndi 5:8 normal
20:56:27 am 06.01.2019 Joachim 7:0 normal
15:06:37 am 06.01.2019 christian 5:9 normal
14:51:31 am 06.01.2019 Waldl1 4:7 normal
11:43:00 am 06.01.2019 roberto 9:5 normal
11:21:54 am 06.01.2019 Roland, Kärntner in ... 6:7 normal
09:37:32 am 06.01.2019 meli 1:7 normal
09:31:16 am 06.01.2019 Marco Müller 7:4 normal
09:26:00 am 06.01.2019 Mag 7:5 normal
09:17:34 am 06.01.2019 Pepp 21 6:9 normal
20:35:54 am 05.01.2019 Schnopser 3:7 normal
20:32:44 am 05.01.2019 gerrymei 4:9 normal
20:30:28 am 05.01.2019 _Rio _ 1:7 normal
18:59:14 am 05.01.2019 Werner 4:7 normal
18:57:20 am 05.01.2019 hh3 7:0 normal
18:47:46 am 05.01.2019 happy_sunshine 8:6 normal
18:43:20 am 05.01.2019 Dizzy 8:2 normal
18:40:41 am 05.01.2019 Wolfgang Berger 8:0 normal
18:35:28 am 05.01.2019 heidi 8:3 normal
17:24:52 am 05.01.2019 Wauzi2 4:9 normal
12:21:28 am 05.01.2019 Mine 8:2 normal
12:20:10 am 05.01.2019 Trippolt Johannes 0:8 normal
12:16:49 am 05.01.2019 Mlintsche 9:2 normal
10:49:35 am 05.01.2019 *biene 4:4 crontimeout
10:46:33 am 05.01.2019 endruboy 8:1 normal
10:42:23 am 05.01.2019 BRA3V3KU 8:3 normal
10:37:36 am 05.01.2019 Boštjan 5:9 normal
10:30:26 am 05.01.2019 Heidi Langmann 7:3 normal
10:26:19 am 05.01.2019 Stanislav Meršnik 3:7 normal
10:23:04 am 05.01.2019 samsung SM-J330FN 7:2 normal
23:05:52 am 04.01.2019 Ema 2:8 normal
23:03:18 am 04.01.2019 kal57 8:0 normal
23:00:05 am 04.01.2019 ali 7:2 normal
22:55:23 am 04.01.2019 ettigirb 8:3 normal
22:08:54 am 04.01.2019 Xandi 5:8 normal
22:04:03 am 04.01.2019 Sabine 8:3 normal
22:00:47 am 04.01.2019 Fuxl 8:2 normal
09:44:28 am 04.01.2019 SM-A310F 3:8 normal
09:41:00 am 04.01.2019 Darku Darku Horvat 8:3 normal
09:37:27 am 04.01.2019 helga 8:5 normal
21:43:37 am 03.01.2019 Evi 6:7 normal
21:37:37 am 03.01.2019 Richi 6:8 normal
21:34:41 am 03.01.2019 DELETED 1:8 normal
21:31:26 am 03.01.2019 Alex i phone 9:0 normal
21:27:09 am 03.01.2019 DELETED 7:4 normal
21:21:20 am 03.01.2019 Carmen Gassner 9:6 normal
20:49:28 am 03.01.2019 Locke 6:7 normal
20:47:34 am 03.01.2019 VR46 8:3 normal
07:53:00 am 03.01.2019 Bettina Fischl 4:7 normal
22:36:47 am 02.01.2019 Zoo 1:7 normal
20:05:06 am 02.01.2019 Mawo 7:5 normal
20:02:14 am 02.01.2019 Pumuckl 1978 8:0 normal
19:57:34 am 02.01.2019 Speedy 7:2 normal
19:51:18 am 02.01.2019 wolfi 7:4 normal
19:21:25 am 02.01.2019 CörTom 7:4 normal
19:17:32 am 02.01.2019 AUDI Quattro 0:7 normal
19:15:33 am 02.01.2019 DELETED 8:0 normal
19:06:39 am 02.01.2019 Mario 5:9 normal
19:03:58 am 02.01.2019 DELETED 7:2 normal
19:00:10 am 02.01.2019 Schneck1 7:6 normal
13:38:41 am 02.01.2019 Markus iPhone 3:9 normal
13:33:46 am 02.01.2019 gennaro 3:9 normal
13:31:23 am 02.01.2019 Anton Opa 1:7 normal
13:28:03 am 02.01.2019 karin 8:4 normal
13:24:24 am 02.01.2019 Mike69 7:1 normal
11:25:36 am 02.01.2019 Amadej Maroša 5:7 normal
11:21:11 am 02.01.2019 jura7777 7:2 normal
11:16:36 am 02.01.2019 morschi 7:5 normal
11:10:45 am 02.01.2019 cora 3:8 normal
11:08:05 am 02.01.2019 *Franz - give-up
10:07:35 am 02.01.2019 Lin_chr 3:7 normal
10:06:27 am 02.01.2019 wuz6 0:8 normal
09:21:58 am 02.01.2019 woody1234 0:7 normal
09:17:14 am 02.01.2019 crisu 8:6 normal
09:11:54 am 02.01.2019 hedree 8:4 normal
09:01:28 am 02.01.2019 Da Kitzbichla 7:2 normal
08:58:05 am 02.01.2019 *blitzi 2:7 autocontnormal
08:54:08 am 02.01.2019 Franz 673 7:2 normal
08:50:08 am 02.01.2019 Anni 13 7:3 normal
08:48:40 am 02.01.2019 Glücksspieler 8:3 normal
22:49:08 am 01.01.2019 Pefi 6:8 normal
22:44:24 am 01.01.2019 Claudia 8:4 normal
22:39:30 am 01.01.2019 fritzthecat 8:6 normal
22:36:49 am 01.01.2019 Aziz 7:0 normal
22:34:02 am 01.01.2019 Piggy 8:2 normal
22:30:22 am 01.01.2019 Spizy 7:2 normal
22:28:06 am 01.01.2019 Cat 1 7:3 normal
21:11:41 am 01.01.2019 norb1 8:5 normal
21:06:33 am 01.01.2019 jole 7:6 normal
21:01:47 am 01.01.2019 rainer 7:1 normal
20:54:22 am 01.01.2019 Rosmarie Sprenger 7:6 normal
20:46:38 am 01.01.2019 SM-P605 7:6 normal
20:41:36 am 01.01.2019 Ernst Kremshuber 7:2 normal
20:30:44 am 01.01.2019 günni 0:8 normal
18:57:49 am 01.01.2019 Martin 0:7 normal
18:55:02 am 01.01.2019 Hob Di 6:9 normal
18:50:43 am 01.01.2019 patrick 7:3 normal
18:45:39 am 01.01.2019 WK46 8:5 normal
16:45:03 am 01.01.2019 19schape69 3:8 normal
16:39:24 am 01.01.2019 Hase 7:6 normal